createdAt,value
2023-03-19T00:00:41.140Z,7.01
2023-03-19T00:03:44.719Z,7.08
2023-03-19T00:06:47.498Z,7.14
2023-03-19T00:09:50.491Z,7.18
2023-03-19T00:12:53.254Z,7.07
2023-03-19T00:15:56.356Z,7.06
2023-03-19T00:18:59.137Z,7.05
2023-03-19T00:22:02.177Z,7.00
2023-03-19T00:25:05.309Z,6.99
2023-03-19T00:28:08.323Z,6.96
2023-03-19T00:31:17.383Z,6.90
2023-03-19T00:34:20.525Z,6.90
2023-03-19T00:37:24.710Z,6.89
2023-03-19T00:40:27.878Z,6.86
2023-03-19T00:43:30.611Z,6.85
2023-03-19T00:46:34.663Z,6.79
2023-03-19T00:49:37.420Z,6.74
2023-03-19T00:52:41.290Z,6.72
2023-03-19T00:55:44.155Z,6.65
2023-03-19T00:58:47.807Z,6.64
2023-03-19T01:01:51.514Z,6.58
2023-03-19T01:04:54.804Z,6.57
2023-03-19T01:07:57.860Z,6.52
2023-03-19T01:11:12.566Z,6.54
2023-03-19T01:14:17.255Z,6.53
2023-03-19T01:17:20.680Z,6.48
2023-03-19T01:20:24.391Z,6.51
2023-03-19T01:23:28.076Z,6.47
2023-03-19T01:26:30.994Z,6.37
2023-03-19T01:29:35.161Z,6.35
2023-03-19T01:32:39.143Z,6.31
2023-03-19T01:35:43.699Z,6.29
2023-03-19T01:38:46.612Z,6.33
2023-03-19T01:41:49.821Z,6.35
2023-03-19T01:44:57.283Z,6.34
2023-03-19T01:48:01.665Z,6.30
2023-03-19T01:51:07.604Z,6.27
2023-03-19T01:54:17.306Z,6.33
2023-03-19T01:57:22.835Z,6.37
2023-03-19T02:00:29.819Z,6.25
2023-03-19T02:03:35.239Z,6.26
2023-03-19T02:06:39.727Z,6.26
2023-03-19T02:09:43.421Z,6.32
2023-03-19T02:12:46.837Z,6.30
2023-03-19T02:15:51.386Z,6.25
2023-03-19T02:18:55.240Z,6.26
2023-03-19T02:22:00.586Z,6.30
2023-03-19T02:25:11.474Z,6.29
2023-03-19T02:28:18.656Z,6.27
2023-03-19T02:31:23.250Z,6.22
2023-03-19T02:34:26.195Z,6.21
2023-03-19T02:37:33.550Z,6.19
2023-03-19T02:40:41.519Z,6.23
2023-03-19T02:43:44.576Z,6.17
2023-03-19T02:46:47.332Z,6.10
2023-03-19T02:49:50.750Z,6.15
2023-03-19T02:52:53.918Z,6.22
2023-03-19T02:55:57.464Z,6.26
2023-03-19T02:59:00.423Z,6.21
2023-03-19T03:02:03.635Z,6.21
2023-03-19T03:05:07.327Z,6.30
2023-03-19T03:08:10.870Z,6.40
2023-03-19T03:11:13.699Z,6.39
2023-03-19T03:14:16.864Z,6.36
2023-03-19T03:17:20.250Z,6.24
2023-03-19T03:20:23.675Z,6.29
2023-03-19T03:23:26.709Z,6.22
2023-03-19T03:26:29.988Z,6.15
2023-03-19T03:29:33.133Z,6.14
2023-03-19T03:32:37.604Z,6.12
2023-03-19T03:35:40.791Z,6.12
2023-03-19T03:38:44.758Z,6.11
2023-03-19T03:41:48.721Z,5.99
2023-03-19T03:44:52.154Z,5.97
2023-03-19T03:47:55.195Z,5.97
2023-03-19T03:50:58.936Z,5.92
2023-03-19T03:54:02.288Z,5.88
2023-03-19T03:57:06.321Z,5.84
2023-03-19T04:00:09.958Z,5.82
2023-03-19T04:03:15.929Z,5.81
2023-03-19T04:06:22.815Z,5.76
2023-03-19T04:09:26.590Z,5.75
2023-03-19T04:12:29.865Z,5.68
2023-03-19T04:15:32.584Z,5.68
2023-03-19T04:18:37.729Z,5.66
2023-03-19T04:21:40.586Z,5.66
2023-03-19T04:24:43.722Z,5.65
2023-03-19T04:27:46.601Z,5.64
2023-03-19T04:30:49.916Z,5.61
2023-03-19T04:33:52.776Z,5.62
2023-03-19T04:36:56.708Z,5.58
2023-03-19T04:39:59.763Z,5.59
2023-03-19T04:43:03.419Z,5.59
2023-03-19T04:46:08.370Z,5.45
2023-03-19T04:49:12.876Z,5.44
2023-03-19T04:52:15.826Z,5.43
2023-03-19T04:55:19.041Z,5.38
2023-03-19T04:58:23.006Z,5.40
2023-03-19T05:01:27.448Z,5.40
2023-03-19T05:04:32.118Z,5.35
2023-03-19T05:07:36.618Z,5.27
2023-03-19T05:10:40.635Z,5.28
2023-03-19T05:13:43.928Z,5.26
2023-03-19T05:16:46.833Z,5.28
2023-03-19T05:19:50.897Z,5.45
2023-03-19T05:22:54.139Z,5.59
2023-03-19T05:26:01.169Z,5.81
2023-03-19T05:29:05.548Z,6.08
2023-03-19T05:32:10.819Z,6.08
2023-03-19T05:35:14.655Z,6.09
2023-03-19T05:38:18.816Z,6.42
2023-03-19T05:41:22.455Z,6.79
2023-03-19T05:44:27.450Z,6.65
2023-03-19T05:47:31.072Z,7.07
2023-03-19T05:50:35.481Z,7.28
2023-03-19T05:53:39.650Z,7.41
2023-03-19T05:56:44.998Z,7.30
2023-03-19T05:59:49.624Z,7.30
2023-03-19T06:02:55.220Z,7.22
2023-03-19T06:05:59.339Z,7.58
2023-03-19T06:09:06.163Z,7.79
2023-03-19T06:12:10.084Z,7.67
2023-03-19T06:15:15.587Z,8.20
2023-03-19T06:18:21.691Z,8.56
2023-03-19T06:21:29.894Z,8.96
2023-03-19T06:24:34.101Z,9.18
2023-03-19T06:27:37.572Z,9.12
2023-03-19T06:30:41.380Z,9.44
2023-03-19T06:33:45.574Z,9.40
2023-03-19T06:36:48.864Z,8.88
2023-03-19T06:39:54.798Z,8.91
2023-03-19T06:42:58.572Z,8.79
2023-03-19T06:46:01.799Z,9.15
2023-03-19T06:49:05.579Z,9.93
2023-03-19T06:52:08.367Z,10.49
2023-03-19T06:55:12.485Z,11.18
2023-03-19T06:58:15.382Z,11.68
2023-03-19T07:01:19.269Z,11.92
2023-03-19T07:04:22.358Z,11.51
2023-03-19T07:07:25.711Z,11.32
2023-03-19T07:10:28.787Z,11.44
2023-03-19T07:13:32.019Z,11.43
2023-03-19T07:16:34.744Z,12.21
2023-03-19T07:19:37.989Z,13.63
2023-03-19T07:22:41.557Z,13.93
2023-03-19T07:25:46.261Z,14.61
2023-03-19T07:28:49.529Z,15.07
2023-03-19T07:31:53.262Z,15.44
2023-03-19T07:34:56.502Z,15.57
2023-03-19T07:38:00.537Z,15.62
2023-03-19T07:41:04.380Z,15.98
2023-03-19T07:44:07.990Z,16.10
2023-03-19T07:47:22.361Z,16.12
2023-03-19T07:50:32.970Z,16.91
2023-03-19T07:53:36.966Z,17.26
2023-03-19T07:56:40.705Z,16.63
2023-03-19T07:59:43.452Z,16.63
2023-03-19T08:02:47.255Z,17.02
2023-03-19T08:05:51.739Z,16.75
2023-03-19T08:08:54.863Z,16.81
2023-03-19T08:11:57.984Z,16.72
2023-03-19T08:15:01.218Z,17.01
2023-03-19T08:18:05.249Z,16.98
2023-03-19T08:21:08.706Z,15.04
2023-03-19T08:24:12.057Z,16.51
2023-03-19T08:27:14.848Z,17.58
2023-03-19T08:30:18.190Z,18.13
2023-03-19T08:33:21.056Z,18.14
2023-03-19T08:36:24.292Z,17.45
2023-03-19T08:39:27.492Z,17.37
2023-03-19T08:42:31.586Z,17.17
2023-03-19T08:45:34.371Z,15.60
2023-03-19T08:48:39.714Z,17.35
2023-03-19T08:51:44.113Z,17.67
2023-03-19T08:54:47.312Z,16.65
2023-03-19T08:57:50.188Z,17.16
2023-03-19T09:00:53.798Z,16.56
2023-03-19T09:03:56.622Z,16.80
2023-03-19T09:06:59.774Z,17.01
2023-03-19T09:10:02.714Z,17.35
2023-03-19T09:13:06.320Z,17.19
2023-03-19T09:16:09.759Z,17.76
2023-03-19T09:19:12.958Z,18.07
2023-03-19T09:22:15.720Z,18.12
2023-03-19T09:25:19.184Z,18.11
2023-03-19T09:28:22.223Z,17.67
2023-03-19T09:31:27.285Z,18.12
2023-03-19T09:34:31.757Z,17.85
2023-03-19T09:37:36.662Z,17.53
2023-03-19T09:40:43.874Z,18.86
2023-03-19T09:43:59.369Z,18.16
2023-03-19T09:47:26.931Z,17.69
2023-03-19T09:50:35.180Z,17.17
2023-03-19T09:53:54.173Z,17.17
2023-03-19T09:56:57.675Z,17.87
2023-03-19T10:00:01.904Z,16.92
2023-03-19T10:03:26.750Z,16.24
2023-03-19T10:06:40.596Z,16.23
2023-03-19T10:09:59.675Z,16.93
2023-03-19T10:13:13.900Z,17.07
2023-03-19T10:16:23.610Z,16.25
2023-03-19T10:19:40.906Z,15.98
2023-03-19T10:23:13.741Z,16.14
2023-03-19T10:26:22.344Z,17.15
2023-03-19T10:29:26.367Z,17.53
2023-03-19T10:32:53.134Z,18.00
2023-03-19T10:36:02.662Z,17.22
2023-03-19T10:39:08.148Z,18.30
2023-03-19T10:42:21.801Z,18.25
2023-03-19T10:45:27.945Z,16.74
2023-03-19T10:48:30.966Z,17.62
2023-03-19T10:51:38.885Z,18.44
2023-03-19T10:54:45.217Z,18.35
2023-03-19T10:57:51.940Z,18.32
2023-03-19T11:01:09.139Z,18.05
2023-03-19T11:04:19.313Z,18.70
2023-03-19T11:07:25.790Z,18.58
2023-03-19T11:10:32.192Z,17.86
2023-03-19T11:13:37.057Z,18.49
2023-03-19T11:16:51.813Z,17.83
2023-03-19T11:19:59.622Z,18.30
2023-03-19T11:23:08.014Z,18.79
2023-03-19T11:26:19.608Z,19.26
2023-03-19T11:29:23.958Z,19.08
2023-03-19T11:32:42.080Z,17.73
2023-03-19T11:36:07.474Z,19.11
2023-03-19T11:39:25.853Z,19.34
2023-03-19T11:43:04.000Z,18.75
2023-03-19T11:46:15.433Z,18.44
2023-03-19T11:49:27.508Z,18.70
2023-03-19T11:52:49.101Z,17.03
2023-03-19T11:56:30.242Z,16.49
2023-03-19T11:59:48.021Z,16.93
2023-03-19T12:02:54.865Z,16.78
2023-03-19T12:06:11.922Z,17.07
2023-03-19T12:09:35.187Z,17.25
2023-03-19T12:13:12.411Z,17.18
2023-03-19T12:16:30.647Z,17.11
2023-03-19T12:19:46.348Z,16.71
2023-03-19T12:23:01.255Z,18.01
2023-03-19T12:26:10.279Z,18.67
2023-03-19T12:29:55.151Z,18.65
2023-03-19T12:33:35.294Z,17.87
2023-03-19T12:36:49.996Z,18.95
2023-03-19T12:40:49.517Z,19.35
2023-03-19T12:43:58.756Z,20.60
2023-03-19T12:47:20.014Z,18.60
2023-03-19T12:50:25.832Z,19.78
2023-03-19T12:53:41.024Z,19.61
2023-03-19T12:57:16.006Z,19.97
2023-03-19T13:00:37.304Z,19.78
2023-03-19T13:04:11.923Z,19.37
2023-03-19T13:07:27.437Z,18.83
2023-03-19T13:10:32.767Z,18.86
2023-03-19T13:13:39.058Z,19.28
2023-03-19T13:16:51.024Z,19.18
2023-03-19T13:19:56.572Z,18.92
2023-03-19T13:23:06.724Z,18.15
2023-03-19T13:26:14.754Z,16.88
2023-03-19T13:29:24.336Z,16.62
2023-03-19T13:32:59.132Z,16.10
2023-03-19T13:36:05.897Z,15.94
2023-03-19T13:39:20.511Z,15.82
2023-03-19T13:42:38.151Z,15.90
2023-03-19T13:45:41.900Z,16.14
2023-03-19T13:48:45.767Z,15.89
2023-03-19T13:51:50.824Z,16.75
2023-03-19T13:54:58.350Z,16.47
2023-03-19T13:58:18.059Z,16.64
2023-03-19T14:01:27.518Z,17.02
2023-03-19T14:04:37.741Z,16.45
2023-03-19T14:07:44.104Z,16.23
2023-03-19T14:10:51.361Z,16.17
2023-03-19T14:13:55.172Z,16.22
2023-03-19T14:17:00.808Z,16.47
2023-03-19T14:20:19.908Z,16.49
2023-03-19T14:23:40.919Z,16.25
2023-03-19T14:26:45.281Z,16.19
2023-03-19T14:29:50.459Z,16.43
2023-03-19T14:32:57.227Z,16.37
2023-03-19T14:36:04.891Z,16.53
2023-03-19T14:39:18.654Z,16.72
2023-03-19T14:42:34.698Z,17.20
2023-03-19T14:46:04.552Z,17.43
2023-03-19T14:49:33.271Z,17.21
2023-03-19T14:52:45.013Z,16.78
2023-03-19T14:55:51.583Z,16.63
2023-03-19T14:58:57.398Z,16.14
2023-03-19T15:02:01.148Z,16.12
2023-03-19T15:05:13.904Z,15.94
2023-03-19T15:08:22.622Z,15.23
2023-03-19T15:11:42.640Z,15.09
2023-03-19T15:15:23.342Z,15.13
2023-03-19T15:18:27.783Z,14.88
2023-03-19T15:21:31.791Z,14.98
2023-03-19T15:24:36.361Z,14.92
2023-03-19T15:27:42.252Z,14.91
2023-03-19T15:30:58.444Z,15.03
2023-03-19T15:34:26.105Z,14.99
2023-03-19T15:37:33.162Z,15.18
2023-03-19T15:40:38.310Z,15.27
2023-03-19T15:43:42.772Z,15.29
2023-03-19T15:46:48.105Z,15.26
2023-03-19T15:49:59.617Z,15.29
2023-03-19T15:53:12.770Z,15.06
2023-03-19T15:56:18.159Z,15.19
2023-03-19T15:59:27.507Z,15.07
2023-03-19T16:02:35.001Z,14.98
2023-03-19T16:05:40.951Z,14.88
2023-03-19T16:08:51.433Z,14.74
2023-03-19T16:11:56.383Z,14.65
2023-03-19T16:15:00.281Z,14.54
2023-03-19T16:18:24.028Z,14.47
2023-03-19T16:21:34.706Z,14.36
2023-03-19T16:24:42.980Z,14.25
2023-03-19T16:27:49.846Z,14.19
2023-03-19T16:30:54.591Z,14.05
2023-03-19T16:33:58.506Z,14.00
2023-03-19T16:37:04.377Z,13.91
2023-03-19T16:40:14.539Z,13.79
2023-03-19T16:43:24.484Z,13.75
2023-03-19T16:46:30.356Z,13.66
2023-03-19T16:49:33.966Z,13.53
2023-03-19T16:52:40.345Z,13.45
2023-03-19T16:55:45.277Z,13.34
2023-03-19T16:58:49.976Z,13.27
2023-03-19T17:01:54.441Z,13.32
2023-03-19T17:05:00.312Z,13.29
2023-03-19T17:08:04.897Z,13.28
2023-03-19T17:11:19.782Z,13.28
2023-03-19T17:14:26.122Z,13.29
2023-03-19T17:17:30.584Z,13.34
2023-03-19T17:20:39.878Z,13.33
2023-03-19T17:23:45.298Z,13.39
2023-03-19T17:26:50.748Z,13.42
2023-03-19T17:29:56.541Z,13.40
2023-03-19T17:33:01.449Z,13.46
2023-03-19T17:36:06.025Z,13.60
2023-03-19T17:39:14.153Z,13.58
2023-03-19T17:42:25.857Z,13.60
2023-03-19T17:45:31.793Z,13.59
2023-03-19T17:48:36.929Z,13.37
2023-03-19T17:51:41.745Z,13.63
2023-03-19T17:54:46.454Z,13.51
2023-03-19T17:57:56.726Z,13.47
2023-03-19T18:01:04.848Z,13.40
2023-03-19T18:04:15.350Z,13.26
2023-03-19T18:07:20.637Z,13.29
2023-03-19T18:10:31.171Z,13.24
2023-03-19T18:13:35.611Z,13.22
2023-03-19T18:16:41.002Z,13.28
2023-03-19T18:19:48.205Z,13.28
2023-03-19T18:22:55.670Z,13.09
2023-03-19T18:25:59.649Z,13.03
2023-03-19T18:29:06.904Z,13.05
2023-03-19T18:32:21.570Z,13.12
2023-03-19T18:35:38.677Z,13.05
2023-03-19T18:38:42.893Z,13.10
2023-03-19T18:41:49.140Z,13.08
2023-03-19T18:44:53.588Z,13.04
2023-03-19T18:47:58.718Z,12.96
2023-03-19T18:51:02.134Z,12.97
2023-03-19T18:54:06.963Z,12.93
2023-03-19T18:57:14.299Z,12.76
2023-03-19T19:00:30.610Z,12.63
2023-03-19T19:03:38.152Z,12.73
2023-03-19T19:06:47.815Z,12.88
2023-03-19T19:09:53.812Z,12.83
2023-03-19T19:12:58.358Z,12.92
2023-03-19T19:16:04.482Z,12.56
2023-03-19T19:19:23.498Z,12.59
2023-03-19T19:22:28.696Z,12.59
2023-03-19T19:25:33.444Z,12.51
2023-03-19T19:28:41.516Z,12.51
2023-03-19T19:31:46.768Z,12.39
2023-03-19T19:34:52.588Z,12.59
2023-03-19T19:37:57.576Z,12.51
2023-03-19T19:41:02.234Z,12.53
2023-03-19T19:44:09.287Z,12.49
2023-03-19T19:47:18.787Z,12.49
2023-03-19T19:50:28.410Z,12.36
2023-03-19T19:53:33.568Z,12.46
2023-03-19T19:56:39.927Z,12.36
2023-03-19T19:59:44.998Z,12.37
2023-03-19T20:02:49.643Z,12.38
2023-03-19T20:05:59.069Z,12.38
2023-03-19T20:09:03.101Z,12.29
2023-03-19T20:12:24.801Z,12.13
2023-03-19T20:15:36.709Z,12.10
2023-03-19T20:18:44.355Z,12.15
2023-03-19T20:21:48.755Z,12.19
2023-03-19T20:24:53.957Z,12.20
2023-03-19T20:28:02.812Z,12.29
2023-03-19T20:31:09.594Z,12.24
2023-03-19T20:34:28.586Z,12.21
2023-03-19T20:37:34.014Z,12.26
2023-03-19T20:40:43.204Z,12.19
2023-03-19T20:43:58.129Z,12.11
2023-03-19T20:47:02.620Z,12.10
2023-03-19T20:50:11.382Z,12.00
2023-03-19T20:53:17.334Z,11.90
2023-03-19T20:56:24.690Z,11.84
2023-03-19T20:59:29.777Z,11.98
2023-03-19T21:02:34.661Z,11.87
2023-03-19T21:05:39.882Z,11.75
2023-03-19T21:08:50.427Z,11.79
2023-03-19T21:11:54.724Z,11.88
2023-03-19T21:15:00.633Z,11.74
2023-03-19T21:18:04.792Z,11.72
2023-03-19T21:21:12.850Z,11.44
2023-03-19T21:24:20.404Z,11.20
2023-03-19T21:27:27.033Z,11.27
2023-03-19T21:30:31.011Z,11.26
2023-03-19T21:33:35.928Z,11.32
2023-03-19T21:36:39.261Z,11.16
2023-03-19T21:39:43.226Z,11.20
2023-03-19T21:42:54.012Z,11.25
2023-03-19T21:45:57.773Z,11.16
2023-03-19T21:49:01.235Z,11.13
2023-03-19T21:52:04.932Z,11.20
2023-03-19T21:55:08.284Z,11.24
2023-03-19T21:58:16.786Z,11.25
2023-03-19T22:01:22.029Z,11.08
2023-03-19T22:04:25.254Z,11.12
2023-03-19T22:07:28.181Z,11.13
2023-03-19T22:10:31.225Z,11.08
2023-03-19T22:13:37.846Z,10.79
2023-03-19T22:16:40.972Z,10.66
2023-03-19T22:19:43.794Z,10.61
2023-03-19T22:22:47.625Z,10.74
2023-03-19T22:25:51.838Z,10.66
2023-03-19T22:28:56.276Z,10.64
2023-03-19T22:31:59.075Z,10.34
2023-03-19T22:35:04.652Z,10.46
2023-03-19T22:38:07.691Z,10.34
2023-03-19T22:41:29.709Z,10.28
2023-03-19T22:44:32.634Z,10.11
2023-03-19T22:47:38.530Z,9.90
2023-03-19T22:50:41.786Z,9.84
2023-03-19T22:53:46.043Z,9.86
2023-03-19T22:56:49.320Z,9.83
2023-03-19T22:59:53.213Z,9.82
2023-03-19T23:03:01.610Z,9.75
2023-03-19T23:06:27.001Z,9.53
2023-03-19T23:09:36.175Z,9.54
2023-03-19T23:12:39.870Z,9.64
2023-03-19T23:15:44.942Z,9.55
2023-03-19T23:18:50.271Z,9.40
2023-03-19T23:21:54.831Z,9.32
2023-03-19T23:24:59.059Z,9.23
2023-03-19T23:28:02.827Z,9.48
2023-03-19T23:31:06.353Z,9.20
2023-03-19T23:34:14.194Z,9.16
2023-03-19T23:37:17.195Z,9.02
2023-03-19T23:40:20.149Z,8.96
2023-03-19T23:43:25.922Z,8.67
2023-03-19T23:46:30.247Z,8.51
2023-03-19T23:49:33.519Z,8.48
2023-03-19T23:52:36.215Z,8.67
2023-03-19T23:55:39.283Z,8.63
2023-03-19T23:58:43.414Z,8.65
